Time;durP1;ratioP1;P1;durP2;ratioP2;P2;SDS_P1;SDS_P2;PMS_P1;PMS_P2;Temp;Humidity;BMP_temperature;BMP_pressure;BME280_temperature;BME280_humidity;BME280_pressure;Samples;Min_cycle;Max_cycle;Signal;HPM_P1;HPM_P2
2021/12/18 00:00:03;;;;;;;50.95;14.43;;;;;;;-149.78;100.00;50635.72;5117276;27;20034;-73
2021/12/18 00:02:32;;;;;;;52.58;14.27;;;;;;;-149.78;100.00;50635.72;5135542;27;20031;-73
2021/12/18 00:04:57;;;;;;;51.88;15.35;;;;;;;-149.78;100.00;50639.66;5135216;27;20035;-74
2021/12/18 00:07:23;;;;;;;62.67;15.50;;;;;;;-149.78;100.00;50624.00;5137162;27;20043;-73
2021/12/18 00:09:51;;;;;;;53.42;15.18;;;;;;;-149.78;100.00;50635.72;5114023;27;20037;-74
2021/12/18 00:12:17;;;;;;;58.88;15.57;;;;;;;-149.78;100.00;50651.38;5111233;27;20031;-73
2021/12/18 00:14:42;;;;;;;52.10;14.43;;;;;;;-149.78;100.00;50667.03;5096226;27;21188;-74
2021/12/18 00:17:08;;;;;;;56.13;15.30;;;;;;;-149.78;100.00;50633.78;5130118;27;20033;-73
2021/12/18 00:19:34;;;;;;;55.22;14.25;;;;;;;-149.78;100.00;50620.09;5154933;27;20030;-73
2021/12/18 00:22:00;;;;;;;45.95;14.07;;;;;;;-149.78;100.00;50624.00;5124903;27;20045;-73
2021/12/18 00:24:26;;;;;;;52.60;14.30;;;;;;;-149.78;100.00;50639.66;5119436;27;20026;-74
2021/12/18 00:26:51;;;;;;;48.85;14.68;;;;;;;-149.78;100.00;50608.34;5154780;27;20031;-73
2021/12/18 00:29:17;;;;;;;47.15;14.93;;;;;;;-149.78;100.00;50631.81;5149281;27;20026;-74
2021/12/18 00:31:43;;;;;;;62.28;15.73;;;;;;;-149.78;100.00;50690.50;5132922;27;20043;-73
2021/12/18 00:34:08;;;;;;;70.68;15.60;;;;;;;-149.78;100.00;50637.69;5145505;27;20367;-73
2021/12/18 00:36:34;;;;;;;51.75;14.60;;;;;;;-149.78;100.00;50629.88;5079439;28;20035;-74
2021/12/18 00:39:00;;;;;;;60.15;17.13;;;;;;;-149.78;100.00;50651.38;5114358;28;20387;-73
2021/12/18 00:41:47;;;;;;;56.97;17.08;;;;;;;-149.78;100.00;50608.34;5062627;28;20031;-73
2021/12/18 00:44:14;;;;;;;57.00;15.63;;;;;;;-149.78;100.00;50620.09;5114097;28;20428;-74
2021/12/18 00:46:43;;;;;;;64.60;17.70;;;;;;;-149.78;100.00;50643.56;5074123;28;20454;-74
2021/12/18 00:49:18;;;;;;;73.60;16.73;;;;;;;-149.78;100.00;50639.66;5095858;28;20408;-73
2021/12/18 00:51:44;;;;;;;60.30;15.40;;;;;;;-149.78;100.00;50631.81;5095854;28;20032;-73
2021/12/18 00:54:10;;;;;;;62.55;16.92;;;;;;;-149.78;100.00;50639.66;5132176;27;20027;-74
2021/12/18 00:56:36;;;;;;;53.47;16.10;;;;;;;-149.78;100.00;50667.03;5134660;27;20053;-73
2021/12/18 00:59:02;;;;;;;46.97;16.25;;;;;;;-149.78;100.00;50612.25;5134546;27;20735;-73
2021/12/18 01:01:30;;;;;;;61.83;17.13;;;;;;;-149.78;100.00;50647.47;5134313;27;20087;-73
2021/12/18 01:03:56;;;;;;;71.32;17.27;;;;;;;-149.78;100.00;50653.34;5116349;27;20144;-73
2021/12/18 01:06:24;;;;;;;48.58;16.52;;;;;;;-149.78;100.00;50635.72;5133342;27;20663;-73
2021/12/18 01:08:53;;;;;;;53.30;16.58;;;;;;;-149.78;100.00;50651.38;5134245;27;20031;-73
2021/12/18 01:16:23;;;;;;;59.58;17.23;;;;;;;-149.78;100.00;50639.66;5134273;27;20037;-74
2021/12/18 01:24:17;;;;;;;54.90;17.48;;;;;;;-149.78;100.00;50598.56;5118704;28;20458;-74
2021/12/18 01:26:43;;;;;;;56.20;16.98;;;;;;;-149.78;100.00;50639.66;5115983;28;20081;-72
2021/12/18 01:29:08;;;;;;;53.80;16.40;;;;;;;-149.78;100.00;50620.09;5115243;28;20039;-74
2021/12/18 01:31:34;;;;;;;50.60;15.60;;;;;;;-149.78;100.00;50670.94;5111965;28;20048;-74
2021/12/18 01:34:00;;;;;;;71.25;16.50;;;;;;;-149.78;100.00;50655.28;5112022;28;20051;-73
2021/12/18 01:36:28;;;;;;;54.63;15.50;;;;;;;-149.78;100.00;50657.25;5095089;28;20036;-72
2021/12/18 01:38:54;;;;;;;74.15;15.90;;;;;;;-149.78;100.00;50682.66;5113297;28;20035;-72
2021/12/18 01:41:20;;;;;;;73.28;16.58;;;;;;;-149.78;100.00;50639.66;5112296;28;20111;-72
2021/12/18 01:51:46;;;;;;;77.28;15.77;;;;;;;-149.78;100.00;50639.66;5113587;28;20080;-72
2021/12/18 01:54:13;;;;;;;60.75;15.73;;;;;;;-149.78;100.00;50635.72;5112048;28;20436;-73
2021/12/18 01:56:39;;;;;;;56.80;16.40;;;;;;;-149.78;100.00;50659.19;5112170;28;20538;-72
2021/12/18 01:59:05;;;;;;;131.77;18.23;;;;;;;-149.78;100.00;50616.19;5112343;28;20123;-72
2021/12/18 02:01:30;;;;;;;137.10;18.33;;;;;;;-149.78;100.00;50651.38;5112754;28;20138;-72
2021/12/18 02:03:56;;;;;;;62.67;16.85;;;;;;;-149.78;100.00;50661.16;5095204;28;20043;-71
2021/12/18 02:06:23;;;;;;;153.40;19.08;;;;;;;-149.78;100.00;50620.09;5112024;28;20080;-74
2021/12/18 02:08:48;;;;;;;99.95;18.85;;;;;;;-149.78;100.00;50635.72;5112955;28;20067;-74
2021/12/18 02:22:00;;;;;;;83.50;16.65;;;;;;;-149.78;100.00;50625.94;5116261;28;20023;-71
2021/12/18 02:24:28;;;;;;;80.25;18.33;;;;;;;-149.78;100.00;50633.78;5116704;28;20088;-72
2021/12/18 02:26:54;;;;;;;64.35;17.83;;;;;;;-149.78;100.00;50604.44;5116469;28;20042;-72
2021/12/18 02:29:21;;;;;;;71.70;17.00;;;;;;;-149.78;100.00;50635.72;5098325;28;20395;-72
2021/12/18 02:31:47;;;;;;;61.00;16.38;;;;;;;-149.78;100.00;50618.13;5131724;27;20055;-73
2021/12/18 02:34:22;;;;;;;61.75;16.05;;;;;;;-149.78;100.00;50651.38;5118719;27;20067;-72
2021/12/18 02:36:49;;;;;;;69.13;14.93;;;;;;;-149.78;100.00;50643.56;5137027;27;20039;-72
2021/12/18 02:42:12;;;;;;;57.05;14.25;;;;;;;-149.78;100.00;50670.94;5107879;27;20116;-73
2021/12/18 02:44:42;;;;;;;59.30;14.05;;;;;;;-149.78;100.00;50639.66;5102689;27;20031;-73
2021/12/18 02:47:08;;;;;;;55.08;14.98;;;;;;;-149.78;100.00;50659.19;5136918;27;20038;-72
2021/12/18 02:49:34;;;;;;;54.20;14.27;;;;;;;-149.78;100.00;50631.81;5136862;27;20122;-74
2021/12/18 02:52:00;;;;;;;62.70;13.57;;;;;;;-149.78;100.00;50649.44;5101261;27;20134;-72
2021/12/18 02:54:26;;;;;;;70.97;14.23;;;;;;;-149.78;100.00;50659.19;5118344;27;20038;-72
2021/12/18 02:56:52;;;;;;;66.63;13.90;;;;;;;-149.78;100.00;50616.19;5136541;27;20042;-72
2021/12/18 02:59:18;;;;;;;65.78;15.80;;;;;;;-149.78;100.00;50639.66;5101740;27;20031;-73
2021/12/18 03:01:44;;;;;;;64.50;15.25;;;;;;;-149.78;100.00;50627.91;5136678;27;20111;-72
2021/12/18 03:04:24;;;;;;;60.38;14.73;;;;;;;-149.78;100.00;50612.25;5117629;27;20060;-71
2021/12/18 03:06:54;;;;;;;55.40;13.90;;;;;;;-149.78;100.00;50620.09;5131297;27;20112;-74
2021/12/18 03:25:28;;;;;;;59.90;13.70;;;;;;;-149.78;100.00;50608.34;5136170;27;20122;-72
2021/12/18 03:27:54;;;;;;;42.83;12.43;;;;;;;-149.78;100.00;50620.09;5133611;27;20267;-72
2021/12/18 03:30:21;;;;;;;59.90;12.52;;;;;;;-149.78;100.00;50647.47;5135989;27;20547;-73
2021/12/18 03:32:47;;;;;;;49.30;12.98;;;;;;;-149.78;100.00;50620.09;5136265;27;20366;-72
2021/12/18 03:35:14;;;;;;;51.10;11.98;;;;;;;-149.78;100.00;50643.56;5135925;27;20024;-73
2021/12/18 03:37:40;;;;;;;49.08;12.65;;;;;;;-149.78;100.00;50624.00;5135945;27;20065;-72
2021/12/18 03:40:09;;;;;;;47.83;12.07;;;;;;;-149.78;100.00;50667.03;5134559;27;20039;-72
2021/12/18 03:42:36;;;;;;;50.65;13.23;;;;;;;-149.78;100.00;50627.91;5134692;27;20038;-72
2021/12/18 03:45:04;;;;;;;57.45;13.70;;;;;;;-149.78;100.00;50653.34;5135762;27;20027;-72
2021/12/18 03:47:30;;;;;;;21.42;5.80;;;;;;;-149.78;100.00;50600.53;5117540;27;20463;-72
2021/12/18 03:49:55;;;;;;;25.20;7.10;;;;;;;-149.78;100.00;50639.66;5134715;27;20119;-72
2021/12/18 03:52:21;;;;;;;30.42;7.75;;;;;;;-149.78;100.00;50637.69;5126233;27;20035;-72
2021/12/18 03:54:47;;;;;;;26.42;7.10;;;;;;;-149.78;100.00;50639.66;5135497;27;20035;-72
2021/12/18 03:57:12;;;;;;;18.67;5.75;;;;;;;-149.78;100.00;50631.81;5135490;27;20413;-72
2021/12/18 03:59:38;;;;;;;12.30;3.90;;;;;;;-149.78;100.00;50647.47;5117254;27;20031;-72
2021/12/18 04:02:04;;;;;;;20.30;6.50;;;;;;;-149.78;100.00;50645.50;5135453;27;20039;-72
2021/12/18 04:04:29;;;;;;;18.52;6.35;;;;;;;-149.78;100.00;50670.94;5117325;27;20106;-72
2021/12/18 04:06:55;;;;;;;26.25;7.15;;;;;;;-149.78;100.00;50627.91;5135170;27;20477;-71
2021/12/18 04:09:21;;;;;;;15.43;5.25;;;;;;;-149.78;100.00;50647.47;5120218;27;20126;-71
2021/12/18 04:11:47;;;;;;;12.68;4.00;;;;;;;-149.78;100.00;50608.34;5122353;27;20153;-72
2021/12/18 04:14:14;;;;;;;13.10;4.60;;;;;;;-149.78;100.00;50655.28;5099967;27;20039;-72
2021/12/18 04:16:40;;;;;;;18.23;5.60;;;;;;;-149.78;100.00;50631.81;5135237;27;20035;-72
2021/12/18 04:19:05;;;;;;;17.40;5.03;;;;;;;-149.78;100.00;50651.38;5134950;27;20057;-72
2021/12/18 04:21:33;;;;;;;16.42;4.90;;;;;;;-149.78;100.00;50659.19;5099953;27;20038;-72
2021/12/18 04:23:59;;;;;;;18.95;5.68;;;;;;;-149.78;100.00;50631.81;5134840;27;20029;-72
2021/12/18 04:26:25;;;;;;;12.57;4.70;;;;;;;-149.78;100.00;50674.84;5135075;27;20039;-72
2021/12/18 04:28:51;;;;;;;17.10;5.22;;;;;;;-149.78;100.00;50651.38;5134742;27;20035;-72
2021/12/18 04:31:17;;;;;;;18.15;5.90;;;;;;;-149.78;100.00;50643.56;5134859;27;20043;-71
2021/12/18 04:33:43;;;;;;;17.88;5.68;;;;;;;-149.78;100.00;50612.25;5116800;27;20039;-71
2021/12/18 04:36:09;;;;;;;14.90;5.63;;;;;;;-149.78;100.00;50631.81;5116325;27;20031;-71
2021/12/18 04:38:35;;;;;;;14.93;5.30;;;;;;;-149.78;100.00;50627.91;5134908;27;20092;-71
2021/12/18 04:41:03;;;;;;;15.88;5.13;;;;;;;-149.78;100.00;50620.09;5134639;27;20493;-72
2021/12/18 04:43:29;;;;;;;21.10;6.13;;;;;;;-149.78;100.00;50674.84;5134817;27;20462;-72
2021/12/18 04:45:55;;;;;;;13.65;4.93;;;;;;;-149.78;100.00;50637.69;5134687;27;20501;-72
2021/12/18 04:48:21;;;;;;;17.50;5.18;;;;;;;-149.78;100.00;50639.66;5116516;27;20055;-71
2021/12/18 04:50:47;;;;;;;16.17;5.07;;;;;;;-149.78;100.00;50612.25;5099240;27;20066;-72
2021/12/18 04:53:13;;;;;;;14.13;5.22;;;;;;;-149.78;100.00;50639.66;5116559;28;20049;-72
2021/12/18 04:55:39;;;;;;;16.98;5.68;;;;;;;-149.78;100.00;50655.28;5116345;27;20782;-72
2021/12/18 04:58:05;;;;;;;19.40;5.50;;;;;;;-149.78;100.00;50584.88;5116163;28;20055;-72
2021/12/18 05:00:39;;;;;;;15.57;5.88;;;;;;;-149.78;100.00;50665.06;5116316;27;20173;-72
2021/12/18 05:03:08;;;;;;;16.58;5.53;;;;;;;-149.78;100.00;50686.59;5101232;28;20035;-72
2021/12/18 05:05:35;;;;;;;15.90;5.13;;;;;;;-149.78;100.00;50667.03;5134355;27;20527;-74
2021/12/18 05:08:02;;;;;;;14.75;5.18;;;;;;;-149.78;100.00;50604.44;5081945;28;20035;-72
2021/12/18 05:10:28;;;;;;;18.65;5.13;;;;;;;-149.78;100.00;50639.66;5116191;28;20035;-72
2021/12/18 05:12:53;;;;;;;14.50;4.55;;;;;;;-149.78;100.00;50674.84;5115680;28;20466;-72
2021/12/18 05:15:19;;;;;;;17.50;5.32;;;;;;;-149.78;100.00;50651.38;5115601;28;20035;-72
2021/12/18 05:17:45;;;;;;;14.13;4.70;;;;;;;-149.78;100.00;50647.47;5115903;28;20057;-72
2021/12/18 05:20:12;;;;;;;14.07;5.30;;;;;;;-149.78;100.00;50639.66;5115697;28;20339;-72
2021/12/18 05:22:42;;;;;;;8.63;3.13;;;;;;;-149.78;100.00;50659.19;5115892;28;20105;-72
2021/12/18 05:25:09;;;;;;;15.88;4.53;;;;;;;-149.78;100.00;50655.28;5115939;28;20031;-72
2021/12/18 05:27:36;;;;;;;15.30;4.05;;;;;;;-149.78;100.00;50690.50;5098163;28;20047;-72
2021/12/18 05:30:09;;;;;;;11.32;3.72;;;;;;;-149.78;100.00;50655.28;5115567;28;20087;-71
2021/12/18 05:32:35;;;;;;;9.88;4.00;;;;;;;-149.78;100.00;50659.19;5116890;28;20351;-72
2021/12/18 05:35:01;;;;;;;11.07;3.75;;;;;;;-149.78;100.00;50635.72;5134048;28;20034;-72
2021/12/18 05:37:49;;;;;;;14.15;4.10;;;;;;;-149.78;100.00;50643.56;5115875;28;20397;-72
2021/12/18 05:40:18;;;;;;;10.27;3.88;;;;;;;-149.78;100.00;50627.91;5119145;28;20035;-72
2021/12/18 05:42:45;;;;;;;14.88;3.70;;;;;;;-149.78;100.00;50614.22;5134165;28;20027;-72
2021/12/18 05:45:12;;;;;;;17.10;4.72;;;;;;;-149.78;100.00;50625.94;5134051;28;20482;-72
2021/12/18 05:47:38;;;;;;;13.05;5.22;;;;;;;-149.78;100.00;50682.66;5134127;28;20088;-73
2021/12/18 05:50:06;;;;;;;14.95;4.35;;;;;;;-149.78;100.00;50672.91;5133714;28;20518;-72
2021/12/18 05:52:32;;;;;;;8.85;3.80;;;;;;;-149.78;100.00;50651.38;5136958;27;20031;-72
2021/12/18 05:54:58;;;;;;;15.25;4.22;;;;;;;-149.78;100.00;50663.13;5137916;27;20512;-73
2021/12/18 05:57:23;;;;;;;16.02;4.50;;;;;;;-149.78;100.00;50643.56;5119565;27;20038;-72
2021/12/18 05:59:50;;;;;;;9.88;4.05;;;;;;;-149.78;100.00;50627.91;5136686;27;20477;-72
2021/12/18 06:02:15;;;;;;;10.88;3.80;;;;;;;-149.78;100.00;50620.09;5136577;27;20035;-72
2021/12/18 06:04:42;;;;;;;12.90;4.47;;;;;;;-149.78;100.00;50647.47;5136461;27;20397;-72
2021/12/18 06:07:39;;;;;;;9.40;3.72;;;;;;;-149.78;100.00;50655.28;5137711;27;20873;-72
2021/12/18 06:09:59;;;;;;;10.57;4.60;;;;;;;-149.78;100.00;50641.59;5137586;27;20020;-72
2021/12/18 06:12:25;;;;;;;15.80;4.40;;;;;;;-149.78;100.00;50655.28;5136554;27;20427;-72
2021/12/18 06:14:52;;;;;;;12.45;4.15;;;;;;;-149.78;100.00;50657.25;5136452;27;20420;-72
2021/12/18 06:17:18;;;;;;;15.18;5.25;;;;;;;-149.78;100.00;50647.47;5136042;27;20084;-72
2021/12/18 06:19:44;;;;;;;12.20;4.75;;;;;;;-149.78;100.00;50661.16;5124912;27;20035;-72
2021/12/18 06:22:10;;;;;;;16.00;4.55;;;;;;;-149.78;100.00;50647.47;5138098;27;20554;-72
2021/12/18 06:24:35;;;;;;;14.27;5.78;;;;;;;-149.78;100.00;50661.16;5122202;27;20035;-72
2021/12/18 06:27:02;;;;;;;18.08;5.10;;;;;;;-149.78;100.00;50647.47;5147239;27;20031;-72
2021/12/18 06:29:28;;;;;;;17.17;4.68;;;;;;;-149.78;100.00;50639.66;5130210;27;20603;-72
2021/12/18 06:31:54;;;;;;;13.48;4.90;;;;;;;-149.78;100.00;50678.75;5129949;27;20047;-72
2021/12/18 06:34:20;;;;;;;17.73;5.55;;;;;;;-149.78;100.00;50647.47;5119969;27;20069;-72
2021/12/18 06:36:47;;;;;;;39.88;7.25;;;;;;;-149.78;100.00;50612.25;5139710;27;20087;-72
2021/12/18 06:39:13;;;;;;;20.30;6.45;;;;;;;-149.78;100.00;50631.81;5120597;27;20038;-72
2021/12/18 06:41:39;;;;;;;21.90;6.70;;;;;;;-149.78;100.00;50641.59;5136999;27;20031;-73
2021/12/18 06:44:05;;;;;;;20.80;6.78;;;;;;;-149.78;100.00;50635.72;5122971;27;20027;-73
2021/12/18 06:46:31;;;;;;;19.10;6.60;;;;;;;-149.78;100.00;50651.38;5122799;27;20114;-72
2021/12/18 06:48:58;;;;;;;20.90;6.93;;;;;;;-149.78;100.00;50606.41;5121895;27;20156;-72
2021/12/18 06:51:23;;;;;;;24.42;7.55;;;;;;;-149.78;100.00;50655.28;5114300;27;20121;-73
2021/12/18 06:53:49;;;;;;;30.40;7.30;;;;;;;-149.78;100.00;50625.94;5117312;27;20076;-72
2021/12/18 06:56:15;;;;;;;22.20;6.70;;;;;;;-149.78;100.00;50631.81;5134486;27;20385;-72
2021/12/18 06:58:44;;;;;;;23.52;7.38;;;;;;;-149.78;100.00;50678.75;5107302;27;20019;-72
2021/12/18 07:01:09;;;;;;;30.83;7.63;;;;;;;-149.78;100.00;50616.19;5116550;27;20195;-72
2021/12/18 07:03:35;;;;;;;29.35;7.25;;;;;;;-149.78;100.00;50604.44;5093678;28;20518;-72
2021/12/18 07:06:01;;;;;;;27.67;7.63;;;;;;;-149.78;100.00;50620.09;5132274;27;20027;-72
2021/12/18 07:08:26;;;;;;;32.38;8.27;;;;;;;-149.78;100.00;50624.00;5105048;27;20034;-72
2021/12/18 07:10:52;;;;;;;52.75;9.98;;;;;;;-149.78;100.00;50710.06;5153121;27;20470;-72
2021/12/18 07:13:18;;;;;;;65.38;8.50;;;;;;;-149.78;100.00;50635.72;5107065;27;20158;-72
2021/12/18 07:15:44;;;;;;;32.67;9.05;;;;;;;-149.78;100.00;50667.03;5132857;27;20122;-72
2021/12/18 07:18:10;;;;;;;28.38;8.93;;;;;;;-149.78;100.00;50651.38;5135577;27;20027;-72
2021/12/18 07:20:35;;;;;;;38.40;10.40;;;;;;;-149.78;100.00;50647.47;5105286;27;20494;-73
2021/12/18 07:23:01;;;;;;;30.90;8.85;;;;;;;-149.78;100.00;50651.38;5139660;27;20469;-73
2021/12/18 07:25:27;;;;;;;37.42;8.93;;;;;;;-149.78;100.00;50600.53;5112114;27;20485;-73
2021/12/18 07:27:54;;;;;;;30.23;7.93;;;;;;;-149.78;100.00;50643.56;5117450;27;20030;-74
2021/12/18 07:30:20;;;;;;;37.47;9.07;;;;;;;-149.78;100.00;50631.81;5097140;28;20407;-72
2021/12/18 07:32:46;;;;;;;35.38;8.57;;;;;;;-149.78;100.00;50624.00;5136180;27;20373;-73
2021/12/18 07:35:12;;;;;;;31.08;8.07;;;;;;;-149.78;100.00;50641.59;5156624;27;20045;-73
2021/12/18 07:37:37;;;;;;;30.42;9.07;;;;;;;-149.78;100.00;50659.19;5156740;27;20030;-73
2021/12/18 07:40:07;;;;;;;37.95;8.88;;;;;;;-149.78;100.00;50661.16;5154283;27;20500;-75
2021/12/18 07:42:33;;;;;;;38.92;9.05;;;;;;;-149.78;100.00;50678.75;5127121;27;20061;-72
2021/12/18 07:44:59;;;;;;;33.80;9.93;;;;;;;-149.78;100.00;50645.50;5122882;27;20028;-73
2021/12/18 07:47:25;;;;;;;40.53;9.88;;;;;;;-149.78;100.00;50641.59;5127841;27;20031;-76
2021/12/18 07:49:51;;;;;;;35.83;9.20;;;;;;;-149.78;100.00;50682.66;5112416;27;20061;-74
2021/12/18 07:52:16;;;;;;;39.05;10.05;;;;;;;-149.78;100.00;50604.44;5107413;27;20431;-73
2021/12/18 07:54:42;;;;;;;42.33;9.63;;;;;;;-149.78;100.00;50651.38;5098242;27;20035;-73
2021/12/18 07:57:08;;;;;;;56.53;9.05;;;;;;;-149.78;100.00;50655.28;5116511;27;20030;-73
2021/12/18 07:59:34;;;;;;;28.30;8.32;;;;;;;-149.78;100.00;50620.09;5141200;27;20019;-74
2021/12/18 08:02:01;;;;;;;36.20;8.20;;;;;;;-149.78;100.00;50655.28;5126959;27;20486;-73
2021/12/18 08:04:27;;;;;;;28.30;7.95;;;;;;;-149.78;100.00;50635.72;5121356;27;20028;-73
2021/12/18 08:06:53;;;;;;;26.45;7.18;;;;;;;-149.78;100.00;50608.34;5121884;27;20031;-74
2021/12/18 08:09:19;;;;;;;28.63;7.82;;;;;;;-149.78;100.00;50647.47;5111186;27;20031;-75
2021/12/18 08:11:45;;;;;;;27.48;7.55;;;;;;;-149.78;100.00;50643.56;5079107;27;20088;-72
2021/12/18 08:14:10;;;;;;;23.75;7.63;;;;;;;-149.78;100.00;50604.44;5116675;27;20034;-75
2021/12/18 08:16:36;;;;;;;23.50;6.65;;;;;;;-149.78;100.00;50651.38;5102507;27;20035;-73
2021/12/18 08:19:03;;;;;;;21.75;6.05;;;;;;;-149.78;100.00;50635.72;5121589;27;20038;-76
2021/12/18 08:21:29;;;;;;;20.65;5.90;;;;;;;-149.78;100.00;50686.59;5105539;27;20042;-74
2021/12/18 08:23:55;;;;;;;24.90;6.68;;;;;;;-149.78;100.00;50641.59;5118952;27;20035;-75
2021/12/18 08:26:20;;;;;;;18.17;5.30;;;;;;;-149.78;100.00;50651.38;5135044;27;20583;-75
2021/12/18 08:28:46;;;;;;;9.80;3.80;;;;;;;-149.78;100.00;50655.28;5112169;27;20049;-73
2021/12/18 08:31:11;;;;;;;16.98;5.18;;;;;;;-149.78;100.00;50651.38;5113795;27;20089;-77
2021/12/18 08:33:37;;;;;;;18.45;5.43;;;;;;;-149.78;100.00;50631.81;5144006;27;20114;-75
2021/12/18 08:36:03;;;;;;;11.25;3.85;;;;;;;-149.78;100.00;50647.47;5094181;27;20039;-72
2021/12/18 08:38:28;;;;;;;18.73;4.97;;;;;;;-149.78;100.00;50694.41;5109606;27;20023;-73
2021/12/18 08:40:54;;;;;;;15.57;4.80;;;;;;;-149.78;100.00;50624.00;5131698;27;20086;-74
2021/12/18 08:43:20;;;;;;;13.68;4.25;;;;;;;-149.78;100.00;50655.28;5142637;27;20030;-73
2021/12/18 08:45:46;;;;;;;15.48;4.80;;;;;;;-149.78;100.00;50600.53;5129035;27;20031;-74
2021/12/18 08:48:11;;;;;;;15.07;3.65;;;;;;;-149.78;100.00;50663.13;5128373;27;20050;-74
2021/12/18 08:50:38;;;;;;;13.38;4.57;;;;;;;-149.78;100.00;50631.81;5096503;27;20035;-73
2021/12/18 08:53:03;;;;;;;13.88;3.92;;;;;;;-149.78;100.00;50641.59;5149866;27;20413;-74
2021/12/18 08:55:29;;;;;;;10.80;3.97;;;;;;;-149.78;100.00;50657.25;5133588;27;20094;-74
2021/12/18 08:57:55;;;;;;;13.00;3.47;;;;;;;-149.78;100.00;50686.59;5121308;27;20034;-76
2021/12/18 09:00:23;;;;;;;13.70;4.03;;;;;;;-149.78;100.00;50600.53;5080366;27;20050;-75
2021/12/18 09:02:52;;;;;;;11.68;3.55;;;;;;;-149.78;100.00;50620.09;5118014;27;20019;-72
2021/12/18 09:05:18;;;;;;;12.25;4.03;;;;;;;-149.78;100.00;50620.09;5134462;27;20404;-71
2021/12/18 09:07:44;;;;;;;12.82;4.32;;;;;;;-149.78;100.00;50676.81;5121646;27;20035;-73
2021/12/18 09:10:11;;;;;;;10.95;3.60;;;;;;;-149.78;100.00;50635.72;5100468;28;20110;-73
2021/12/18 09:12:37;;;;;;;17.30;5.00;;;;;;;-149.78;100.00;50639.66;5115333;27;20031;-72
2021/12/18 09:15:03;;;;;;;22.85;5.57;;;;;;;-149.78;100.00;50631.81;5115806;27;20027;-74
2021/12/18 09:17:29;;;;;;;19.95;6.63;;;;;;;-149.78;100.00;50635.72;5101653;27;20027;-74
2021/12/18 09:19:55;;;;;;;21.75;7.40;;;;;;;-149.78;100.00;50678.75;5124205;27;20356;-74
2021/12/18 09:22:20;;;;;;;30.20;8.30;;;;;;;-149.78;100.00;50663.13;5135761;27;20486;-74
2021/12/18 09:24:47;;;;;;;29.48;8.15;;;;;;;-149.78;100.00;50655.28;5072817;27;20571;-73
2021/12/18 09:27:15;;;;;;;31.42;9.95;;;;;;;-149.78;100.00;50629.88;5136911;27;20031;-73
2021/12/18 09:29:42;;;;;;;29.10;9.90;;;;;;;-149.78;100.00;50625.94;5131419;27;20130;-72
2021/12/18 09:32:08;;;;;;;30.02;10.30;;;;;;;-149.78;100.00;50653.34;5096064;27;20485;-74
2021/12/18 09:34:34;;;;;;;33.88;10.52;;;;;;;-149.78;100.00;50604.44;5139884;27;20023;-72
2021/12/18 09:37:00;;;;;;;28.55;8.68;;;;;;;-149.78;100.00;50651.38;5122802;27;20479;-74
2021/12/18 09:39:26;;;;;;;28.40;9.80;;;;;;;-149.78;100.00;50635.72;5142302;27;20019;-73
2021/12/18 09:41:53;;;;;;;31.23;9.13;;;;;;;-149.78;100.00;50647.47;5108367;27;20474;-73
2021/12/18 09:44:31;;;;;;;33.88;9.80;;;;;;;-149.78;100.00;50620.09;5128132;27;20092;-73
2021/12/18 09:46:59;;;;;;;26.35;8.68;;;;;;;-149.78;100.00;50665.06;5149968;27;20110;-74
2021/12/18 09:49:25;;;;;;;21.75;8.02;;;;;;;-149.78;100.00;50635.72;5132269;27;20038;-75
2021/12/18 09:51:52;;;;;;;33.40;8.98;;;;;;;-149.78;100.00;50635.72;5105802;27;20035;-75
2021/12/18 09:54:19;;;;;;;27.63;7.38;;;;;;;-149.78;100.00;50651.38;5120022;27;20063;-80
2021/12/18 09:56:45;;;;;;;21.65;7.28;;;;;;;-149.78;100.00;50635.72;5149131;27;20385;-74
2021/12/18 09:59:12;;;;;;;23.13;8.10;;;;;;;-149.78;100.00;50659.19;5124772;27;20475;-76
2021/12/18 10:01:37;;;;;;;29.48;8.38;;;;;;;-149.78;100.00;50627.91;5127726;27;20136;-75
2021/12/18 10:04:04;;;;;;;33.25;9.73;;;;;;;-149.78;100.00;50672.91;5144188;27;20058;-76
2021/12/18 10:06:44;;;;;;;33.13;9.75;;;;;;;-149.78;100.00;50631.81;5106438;27;20035;-76
2021/12/18 10:09:28;;;;;;;29.73;10.23;;;;;;;-149.78;100.00;50629.88;5116896;27;20030;-74
2021/12/18 10:11:59;;;;;;;27.05;8.43;;;;;;;-149.78;100.00;50622.03;5140710;27;20026;-72
2021/12/18 10:14:34;;;;;;;23.42;7.50;;;;;;;-149.78;100.00;50649.44;5122220;27;20113;-74
2021/12/18 10:17:00;;;;;;;29.25;8.27;;;;;;;-149.78;100.00;50631.81;5113223;27;20060;-74
2021/12/18 10:19:31;;;;;;;21.15;6.38;;;;;;;-149.78;100.00;50614.22;5108420;27;20026;-74
2021/12/18 10:22:03;;;;;;;20.90;6.40;;;;;;;-149.78;100.00;50600.53;5148389;27;20035;-73
2021/12/18 10:24:30;;;;;;;;;;;;;;;-149.78;100.00;50624.00;5140940;27;20023;-74
2021/12/18 10:26:56;;;;;;;25.83;7.65;;;;;;;-149.78;100.00;50651.38;5122291;27;19917;-74
2021/12/18 10:29:34;;;;;;;22.63;8.07;;;;;;;-149.78;100.00;50624.00;5113972;27;20121;-75
2021/12/18 10:32:09;;;;;;;30.23;7.70;;;;;;;-149.78;100.00;50616.19;5107232;27;20047;-75
2021/12/18 10:34:37;;;;;;;20.75;6.85;;;;;;;-149.78;100.00;50624.00;5111533;27;20039;-74
2021/12/18 10:37:14;;;;;;;26.27;7.30;;;;;;;-149.78;100.00;50639.66;5088481;27;20124;-74
2021/12/18 10:39:50;;;;;;;23.15;6.85;;;;;;;-149.78;100.00;50620.09;5149758;27;20026;-75
2021/12/18 10:42:25;;;;;;;23.23;7.38;;;;;;;-149.78;100.00;50670.94;5117700;28;20033;-77
2021/12/18 10:44:58;;;;;;;23.73;6.93;;;;;;;-149.78;100.00;50655.28;5146287;27;20072;-73
2021/12/18 10:47:25;;;;;;;22.45;7.35;;;;;;;-149.78;100.00;50631.81;5138353;27;20027;-76
2021/12/18 10:49:54;;;;;;;26.05;8.18;;;;;;;-149.78;100.00;50616.19;5141937;27;20018;-77
2021/12/18 10:52:36;;;;;;;28.70;9.18;;;;;;;-149.78;100.00;50643.56;5113614;28;20413;-76
2021/12/18 10:55:05;;;;;;;27.33;9.23;;;;;;;-149.78;100.00;50631.81;5105883;28;20491;-78
2021/12/18 10:57:31;;;;;;;37.63;9.55;;;;;;;-149.78;100.00;50600.53;5080176;28;20620;-78
2021/12/18 10:59:58;;;;;;;28.45;9.48;;;;;;;-149.78;100.00;50655.28;5123181;27;20038;-74
2021/12/18 11:02:27;;;;;;;39.65;10.05;;;;;;;-149.78;100.00;50627.91;5148814;27;20030;-76
2021/12/18 11:04:53;;;;;;;26.05;8.60;;;;;;;-149.78;100.00;50624.00;5142290;27;20026;-74
2021/12/18 11:07:22;;;;;;;29.10;8.77;;;;;;;-149.78;100.00;50624.00;5132157;27;20449;-75
2021/12/18 11:10:10;;;;;;;21.63;6.93;;;;;;;-149.78;100.00;50647.47;5116765;27;20023;-76
2021/12/18 11:15:19;;;;;;;28.85;9.20;;;;;;;-149.78;100.00;50604.44;5132130;27;20529;-72
2021/12/18 11:17:46;;;;;;;27.05;8.68;;;;;;;-149.78;100.00;50655.28;5128811;27;20075;-72
2021/12/18 11:20:12;;;;;;;19.70;7.05;;;;;;;-149.78;100.00;50645.50;5132677;27;20088;-73
2021/12/18 11:22:39;;;;;;;28.40;8.88;;;;;;;-149.78;100.00;50627.91;5107190;27;20099;-75
2021/12/18 11:25:07;;;;;;;28.60;8.77;;;;;;;-149.78;100.00;50645.50;5115790;27;20027;-72
2021/12/18 11:27:35;;;;;;;28.58;9.00;;;;;;;-149.78;100.00;50616.19;5142676;27;20165;-72
2021/12/18 11:30:06;;;;;;;24.95;7.60;;;;;;;-149.78;100.00;50639.66;5095798;27;1295444;-75
2021/12/18 11:32:37;;;;;;;29.45;8.85;;;;;;;-149.78;100.00;50647.47;5138722;27;20488;-77
2021/12/18 11:35:16;;;;;;;27.42;9.00;;;;;;;-149.78;100.00;50608.34;5141490;27;20045;-75
2021/12/18 11:37:45;;;;;;;32.83;9.57;;;;;;;-149.78;100.00;50663.13;5132122;27;20045;-73
2021/12/18 11:40:17;;;;;;;30.23;9.10;;;;;;;-149.78;100.00;50663.13;5108760;27;20035;-74
2021/12/18 11:42:43;;;;;;;30.85;8.25;;;;;;;-149.78;100.00;50641.59;5135862;27;20019;-75
2021/12/18 11:45:09;;;;;;;26.85;8.68;;;;;;;-149.78;100.00;50635.72;5138265;27;20161;-76
2021/12/18 11:47:53;;;;;;;36.17;10.00;;;;;;;-149.78;100.00;50592.72;5114376;27;20035;-74
2021/12/18 11:50:27;;;;;;;35.90;10.20;;;;;;;-149.78;100.00;50631.81;5149362;27;20027;-76